sensor_id;sensor_type;location;lat;lon;timestamp;pressure;altitude;pressure_sealevel;temperature;humidity
64064;BME280;50314;50.618;10.642;2022-08-04T00:07:45;96661.50;;;25.17;24.34
64064;BME280;50314;50.618;10.642;2022-08-04T00:10:16;96658.59;;;25.19;24.29
64064;BME280;50314;50.618;10.642;2022-08-04T00:12:45;96656.75;;;25.19;24.39
64064;BME280;50314;50.618;10.642;2022-08-04T00:15:14;96659.44;;;25.19;24.36
64064;BME280;50314;50.618;10.642;2022-08-04T00:17:44;96657.78;;;25.18;24.24
64064;BME280;50314;50.618;10.642;2022-08-04T00:20:11;96658.59;;;25.19;24.08
64064;BME280;50314;50.618;10.642;2022-08-04T00:22:42;96659.63;;;25.18;24.50
64064;BME280;50314;50.618;10.642;2022-08-04T00:25:09;96656.13;;;25.17;24.08
64064;BME280;50314;50.618;10.642;2022-08-04T00:27:35;96656.13;;;25.17;24.15
64064;BME280;50314;50.618;10.642;2022-08-04T00:30:02;96651.97;;;25.15;24.24
64064;BME280;50314;50.618;10.642;2022-08-04T00:32:28;96648.44;;;25.14;24.33
64064;BME280;50314;50.618;10.642;2022-08-04T00:34:56;96651.38;;;25.13;24.19
64064;BME280;50314;50.618;10.642;2022-08-04T00:37:23;96655.91;;;25.12;24.06
64064;BME280;50314;50.618;10.642;2022-08-04T00:39:48;96659.44;;;25.06;24.43
64064;BME280;50314;50.618;10.642;2022-08-04T00:42:43;96664.63;;;25.07;24.29
64064;BME280;50314;50.618;10.642;2022-08-04T00:50:43;96665.84;;;25.05;24.06
64064;BME280;50314;50.618;10.642;2022-08-04T00:53:42;96661.47;;;24.97;24.36
64064;BME280;50314;50.618;10.642;2022-08-04T01:01:48;96658.56;;;24.92;24.38
64064;BME280;50314;50.618;10.642;2022-08-04T01:04:23;96660.41;;;24.92;24.34
64064;BME280;50314;50.618;10.642;2022-08-04T01:10:08;96657.53;;;24.87;24.55
64064;BME280;50314;50.618;10.642;2022-08-04T01:12:42;96656.69;;;24.86;24.61
64064;BME280;50314;50.618;10.642;2022-08-04T01:15:32;96661.66;;;24.82;24.37
64064;BME280;50314;50.618;10.642;2022-08-04T01:20:26;96662.91;;;24.87;24.65
64064;BME280;50314;50.618;10.642;2022-08-04T01:28:54;96656.06;;;24.77;24.77
64064;BME280;50314;50.618;10.642;2022-08-04T01:34:02;96650.47;;;24.79;24.48
64064;BME280;50314;50.618;10.642;2022-08-04T01:36:32;96651.50;;;24.78;24.59
64064;BME280;50314;50.618;10.642;2022-08-04T01:38:59;96647.16;;;24.77;24.64
64064;BME280;50314;50.618;10.642;2022-08-04T01:41:45;96657.69;;;24.78;24.64
64064;BME280;50314;50.618;10.642;2022-08-04T01:44:12;96647.97;;;24.77;24.52
64064;BME280;50314;50.618;10.642;2022-08-04T01:46:39;96647.97;;;24.77;24.49
64064;BME280;50314;50.618;10.642;2022-08-04T01:49:05;96641.97;;;24.75;24.50
64064;BME280;50314;50.618;10.642;2022-08-04T01:51:31;96646.50;;;24.68;24.78
64064;BME280;50314;50.618;10.642;2022-08-04T01:54:00;96646.72;;;24.73;24.75
64064;BME280;50314;50.618;10.642;2022-08-04T01:56:27;96646.72;;;24.73;24.72
64064;BME280;50314;50.618;10.642;2022-08-04T01:58:56;96648.59;;;24.73;24.48
64064;BME280;50314;50.618;10.642;2022-08-04T02:01:21;96646.09;;;24.71;24.40
64064;BME280;50314;50.618;10.642;2022-08-04T02:03:47;96647.34;;;24.69;24.49
64064;BME280;50314;50.618;10.642;2022-08-04T02:06:31;96645.47;;;24.63;24.83
64064;BME280;50314;50.618;10.642;2022-08-04T02:11:30;96641.56;;;24.65;24.85
64064;BME280;50314;50.618;10.642;2022-08-04T02:13:57;96638.22;;;24.63;24.85
64064;BME280;50314;50.618;10.642;2022-08-04T02:16:48;96646.06;;;24.58;24.74
64064;BME280;50314;50.618;10.642;2022-08-04T02:19:35;96646.50;;;24.55;24.93
64064;BME280;50314;50.618;10.642;2022-08-04T02:22:08;96636.16;;;24.58;25.13
64064;BME280;50314;50.618;10.642;2022-08-04T02:24:42;96637.56;;;24.54;24.58
64064;BME280;50314;50.618;10.642;2022-08-04T02:27:12;96639.03;;;24.57;24.80
64064;BME280;50314;50.618;10.642;2022-08-04T02:30:07;96638.84;;;24.52;24.97
64064;BME280;50314;50.618;10.642;2022-08-04T02:32:35;96634.69;;;24.56;24.81
64064;BME280;50314;50.618;10.642;2022-08-04T02:35:14;96641.53;;;24.52;24.75
64064;BME280;50314;50.618;10.642;2022-08-04T02:37:59;96639.03;;;24.50;24.76
64064;BME280;50314;50.618;10.642;2022-08-04T02:40:29;96641.94;;;24.55;24.66
64064;BME280;50314;50.618;10.642;2022-08-04T02:42:56;96637.78;;;24.53;24.67
64064;BME280;50314;50.618;10.642;2022-08-04T02:45:22;96641.53;;;24.52;24.44
64064;BME280;50314;50.618;10.642;2022-08-04T02:47:49;96636.16;;;24.52;24.79
64064;BME280;50314;50.618;10.642;2022-08-04T02:50:17;96631.16;;;24.49;24.88
64064;BME280;50314;50.618;10.642;2022-08-04T02:52:44;96630.34;;;24.48;25.10
64064;BME280;50314;50.618;10.642;2022-08-04T02:55:10;96626.97;;;24.46;24.71
64064;BME280;50314;50.618;10.642;2022-08-04T02:57:38;96628.63;;;24.47;24.78
64064;BME280;50314;50.618;10.642;2022-08-04T03:00:08;96632.75;;;24.43;24.76
64064;BME280;50314;50.618;10.642;2022-08-04T03:05:22;96632.13;;;24.41;25.04
64064;BME280;50314;50.618;10.642;2022-08-04T03:08:23;96628.59;;;24.34;25.24
64064;BME280;50314;50.618;10.642;2022-08-04T03:16:38;96631.50;;;24.32;25.32
64064;BME280;50314;50.618;10.642;2022-08-04T03:27:31;96638.31;;;24.28;25.38
64064;BME280;50314;50.618;10.642;2022-08-04T03:30:06;96635.63;;;24.28;24.96
64064;BME280;50314;50.618;10.642;2022-08-04T03:35:38;96643.88;;;24.27;24.97
64064;BME280;50314;50.618;10.642;2022-08-04T03:38:16;96649.28;;;24.27;25.09
64064;BME280;50314;50.618;10.642;2022-08-04T03:52:11;96644.66;;;24.14;25.35
64064;BME280;50314;50.618;10.642;2022-08-04T04:00:18;96643.44;;;24.17;24.80
64064;BME280;50314;50.618;10.642;2022-08-04T04:03:00;96644.47;;;24.15;25.43
64064;BME280;50314;50.618;10.642;2022-08-04T04:16:36;96642.34;;;23.69;23.99
64064;BME280;50314;50.618;10.642;2022-08-04T04:22:28;96644.31;;;23.48;24.34
64064;BME280;50314;50.618;10.642;2022-08-04T04:25:24;96646.09;;;23.40;24.74
64064;BME280;50314;50.618;10.642;2022-08-04T04:37:02;96648.41;;;23.43;24.69
64064;BME280;50314;50.618;10.642;2022-08-04T04:42:45;96652.13;;;23.42;25.01
64064;BME280;50314;50.618;10.642;2022-08-04T04:45:46;96649.25;;;23.44;25.29
64064;BME280;50314;50.618;10.642;2022-08-04T04:53:27;96661.69;;;23.52;25.28
64064;BME280;50314;50.618;10.642;2022-08-04T04:58:51;96658.22;;;23.58;25.13
64064;BME280;50314;50.618;10.642;2022-08-04T05:01:25;96656.16;;;23.60;24.90
64064;BME280;50314;50.618;10.642;2022-08-04T05:06:45;96657.44;;;23.64;25.17
64064;BME280;50314;50.618;10.642;2022-08-04T05:09:26;96653.06;;;23.63;25.06
64064;BME280;50314;50.618;10.642;2022-08-04T05:14:57;96660.34;;;23.69;25.24
64064;BME280;50314;50.618;10.642;2022-08-04T05:17:32;96663.88;;;23.69;25.09
64064;BME280;50314;50.618;10.642;2022-08-04T05:20:07;96669.06;;;23.71;25.14
64064;BME280;50314;50.618;10.642;2022-08-04T05:22:41;96664.94;;;23.75;25.09
64064;BME280;50314;50.618;10.642;2022-08-04T05:25:26;96662.66;;;23.72;25.35
64064;BME280;50314;50.618;10.642;2022-08-04T05:28:04;96662.69;;;23.79;25.07
64064;BME280;50314;50.618;10.642;2022-08-04T05:30:34;96659.38;;;23.83;24.91
64064;BME280;50314;50.618;10.642;2022-08-04T05:33:06;96662.31;;;23.88;24.69
64064;BME280;50314;50.618;10.642;2022-08-04T05:35:39;96660.25;;;23.90;25.43
64064;BME280;50314;50.618;10.642;2022-08-04T05:38:06;96674.97;;;23.95;25.22
64064;BME280;50314;50.618;10.642;2022-08-04T05:40:32;96666.56;;;23.98;24.92
64064;BME280;50314;50.618;10.642;2022-08-04T05:42:59;96664.28;;;24.01;24.76
64064;BME280;50314;50.618;10.642;2022-08-04T05:45:26;96657.88;;;24.02;25.19
64064;BME280;50314;50.618;10.642;2022-08-04T05:47:52;96657.66;;;24.04;25.14
64064;BME280;50314;50.618;10.642;2022-08-04T05:50:18;96656.44;;;24.06;25.15
64064;BME280;50314;50.618;10.642;2022-08-04T05:52:45;96657.91;;;24.09;25.05
64064;BME280;50314;50.618;10.642;2022-08-04T05:55:11;96655.84;;;24.11;25.60
64064;BME280;50314;50.618;10.642;2022-08-04T05:57:39;96665.19;;;24.15;25.75
64064;BME280;50314;50.618;10.642;2022-08-04T06:00:06;96658.34;;;24.19;25.61
64064;BME280;50314;50.618;10.642;2022-08-04T06:02:32;96657.13;;;24.22;25.38
64064;BME280;50314;50.618;10.642;2022-08-04T06:04:59;96661.91;;;24.26;25.71
64064;BME280;50314;50.618;10.642;2022-08-04T06:07:26;96660.47;;;24.30;25.62
64064;BME280;50314;50.618;10.642;2022-08-04T06:09:52;96665.44;;;24.33;25.96
64064;BME280;50314;50.618;10.642;2022-08-04T06:12:21;96662.34;;;24.36;25.82
64064;BME280;50314;50.618;10.642;2022-08-04T06:14:49;96657.81;;;24.44;25.91
64064;BME280;50314;50.618;10.642;2022-08-04T06:17:23;96662.78;;;24.47;25.84
64064;BME280;50314;50.618;10.642;2022-08-04T06:19:52;96662.03;;;24.53;25.87
64064;BME280;50314;50.618;10.642;2022-08-04T06:22:21;96666.59;;;24.59;26.05
64064;BME280;50314;50.618;10.642;2022-08-04T06:24:48;96664.75;;;24.66;25.84
64064;BME280;50314;50.618;10.642;2022-08-04T06:27:16;96661.44;;;24.71;25.96
64064;BME280;50314;50.618;10.642;2022-08-04T06:29:43;96664.75;;;24.73;26.43
64064;BME280;50314;50.618;10.642;2022-08-04T06:32:09;96659.41;;;24.86;25.83
64064;BME280;50314;50.618;10.642;2022-08-04T06:34:50;96659.41;;;24.93;25.94
64064;BME280;50314;50.618;10.642;2022-08-04T06:37:17;96662.75;;;25.01;25.92
64064;BME280;50314;50.618;10.642;2022-08-04T06:39:43;96665.03;;;25.11;25.87
64064;BME280;50314;50.618;10.642;2022-08-04T06:42:09;96663.78;;;25.20;25.72
64064;BME280;50314;50.618;10.642;2022-08-04T06:44:35;96664.63;;;25.27;25.63
64064;BME280;50314;50.618;10.642;2022-08-04T06:47:01;96666.25;;;25.35;25.40
64064;BME280;50314;50.618;10.642;2022-08-04T06:49:29;96666.25;;;25.42;25.48
64064;BME280;50314;50.618;10.642;2022-08-04T06:51:55;96664.78;;;25.46;25.15
64064;BME280;50314;50.618;10.642;2022-08-04T06:54:22;96659.44;;;25.52;25.30
64064;BME280;50314;50.618;10.642;2022-08-04T06:56:48;96660.28;;;25.60;25.13
64064;BME280;50314;50.618;10.642;2022-08-04T06:59:16;96659.00;;;25.69;25.19
64064;BME280;50314;50.618;10.642;2022-08-04T07:01:43;96661.25;;;25.78;24.81
64064;BME280;50314;50.618;10.642;2022-08-04T07:04:10;96662.47;;;25.89;24.72
64064;BME280;50314;50.618;10.642;2022-08-04T07:06:36;96666.59;;;25.98;24.42
64064;BME280;50314;50.618;10.642;2022-08-04T07:09:02;96661.84;;;26.07;24.68
64064;BME280;50314;50.618;10.642;2022-08-04T07:11:27;96670.31;;;26.17;24.14
64064;BME280;50314;50.618;10.642;2022-08-04T07:13:54;96664.66;;;26.25;24.09
64064;BME280;50314;50.618;10.642;2022-08-04T07:16:21;96658.16;;;26.33;24.07
64064;BME280;50314;50.618;10.642;2022-08-04T07:18:47;96662.91;;;26.44;24.03
64064;BME280;50314;50.618;10.642;2022-08-04T07:21:20;96657.47;;;26.51;23.75
64064;BME280;50314;50.618;10.642;2022-08-04T07:23:46;96659.50;;;26.62;23.55
64064;BME280;50314;50.618;10.642;2022-08-04T07:26:12;96649.50;;;26.69;23.22
64064;BME280;50314;50.618;10.642;2022-08-04T07:28:40;96659.00;;;26.79;23.37
64064;BME280;50314;50.618;10.642;2022-08-04T07:31:09;96655.44;;;26.85;23.27
64064;BME280;50314;50.618;10.642;2022-08-04T07:33:35;96649.75;;;26.93;22.99
64064;BME280;50314;50.618;10.642;2022-08-04T07:36:01;96655.75;;;27.02;22.68
64064;BME280;50314;50.618;10.642;2022-08-04T07:38:26;96656.16;;;27.05;22.95
64064;BME280;50314;50.618;10.642;2022-08-04T07:40:52;96648.03;;;27.05;22.98
64064;BME280;50314;50.618;10.642;2022-08-04T07:43:17;96652.38;;;27.06;22.62
64064;BME280;50314;50.618;10.642;2022-08-04T07:45:43;96651.75;;;27.04;22.89
64064;BME280;50314;50.618;10.642;2022-08-04T07:48:09;96649.91;;;27.05;22.53
64064;BME280;50314;50.618;10.642;2022-08-04T07:50:35;96658.03;;;27.05;22.55
64064;BME280;50314;50.618;10.642;2022-08-04T07:53:02;96650.13;;;27.03;22.84
64064;BME280;50314;50.618;10.642;2022-08-04T07:55:29;96650.13;;;27.03;22.38
64064;BME280;50314;50.618;10.642;2022-08-04T07:57:54;96654.47;;;27.04;22.97
64064;BME280;50314;50.618;10.642;2022-08-04T08:00:20;96656.16;;;27.05;22.34
64064;BME280;50314;50.618;10.642;2022-08-04T08:02:48;96648.84;;;27.06;22.61
64064;BME280;50314;50.618;10.642;2022-08-04T08:05:15;96637.81;;;27.07;22.74
64064;BME280;50314;50.618;10.642;2022-08-04T08:07:46;96647.22;;;27.05;22.40
64064;BME280;50314;50.618;10.642;2022-08-04T08:10:13;96645.72;;;27.09;22.61
64064;BME280;50314;50.618;10.642;2022-08-04T08:12:38;96633.84;;;27.10;22.66
64064;BME280;50314;50.618;10.642;2022-08-04T08:15:06;96639.88;;;27.12;22.17
64064;BME280;50314;50.618;10.642;2022-08-04T08:17:32;96640.25;;;27.15;22.04
64064;BME280;50314;50.618;10.642;2022-08-04T08:19:58;96639.19;;;27.16;22.04
64064;BME280;50314;50.618;10.642;2022-08-04T08:22:24;96644.16;;;27.20;22.45
64064;BME280;50314;50.618;10.642;2022-08-04T08:24:49;96643.28;;;27.26;21.75
64064;BME280;50314;50.618;10.642;2022-08-04T08:27:15;96639.59;;;27.45;21.72
64064;BME280;50314;50.618;10.642;2022-08-04T08:29:41;96639.34;;;27.47;21.35
64064;BME280;50314;50.618;10.642;2022-08-04T08:32:08;96636.88;;;27.45;21.45
64064;BME280;50314;50.618;10.642;2022-08-04T08:34:37;96636.41;;;27.48;21.60
64064;BME280;50314;50.618;10.642;2022-08-04T08:59:31;96624.53;;;27.56;21.35
64064;BME280;50314;50.618;10.642;2022-08-04T09:18:10;96615.59;;;27.74;21.47
64064;BME280;50314;50.618;10.642;2022-08-04T09:23:48;96619.28;;;27.79;21.02
64064;BME280;50314;50.618;10.642;2022-08-04T09:26:47;96613.00;;;27.79;20.99
64064;BME280;50314;50.618;10.642;2022-08-04T09:34:33;96619.34;;;27.91;20.96
64064;BME280;50314;50.618;10.642;2022-08-04T09:47:57;96608.38;;;28.04;20.49
64064;BME280;50314;50.618;10.642;2022-08-04T09:50:42;96613.78;;;28.04;20.78
64064;BME280;50314;50.618;10.642;2022-08-04T09:56:37;96604.97;;;28.09;20.69
64064;BME280;50314;50.618;10.642;2022-08-04T09:59:08;96612.44;;;28.14;20.90
64064;BME280;50314;50.618;10.642;2022-08-04T10:01:35;96607.50;;;28.22;20.37
64064;BME280;50314;50.618;10.642;2022-08-04T10:04:07;96605.66;;;28.23;20.46
64064;BME280;50314;50.618;10.642;2022-08-04T10:22:20;96598.84;;;28.32;20.53
64064;BME280;50314;50.618;10.642;2022-08-04T10:27:36;96592.97;;;28.35;20.07
64064;BME280;50314;50.618;10.642;2022-08-04T10:30:07;96605.84;;;28.40;20.18
64064;BME280;50314;50.618;10.642;2022-08-04T10:32:54;96594.63;;;28.36;20.00
64064;BME280;50314;50.618;10.642;2022-08-04T10:35:24;96593.69;;;28.42;19.93
64064;BME280;50314;50.618;10.642;2022-08-04T10:40:32;96589.97;;;28.43;20.17
64064;BME280;50314;50.618;10.642;2022-08-04T10:48:56;96587.41;;;28.48;19.71
64064;BME280;50314;50.618;10.642;2022-08-04T10:51:32;96585.75;;;28.47;19.66
64064;BME280;50314;50.618;10.642;2022-08-04T10:54:05;96579.06;;;28.50;19.77
64064;BME280;50314;50.618;10.642;2022-08-04T10:59:09;96584.69;;;28.48;19.56
64064;BME280;50314;50.618;10.642;2022-08-04T11:01:38;96584.22;;;28.51;19.37
64064;BME280;50314;50.618;10.642;2022-08-04T11:04:22;96577.16;;;28.50;19.81
64064;BME280;50314;50.618;10.642;2022-08-04T11:06:51;96579.78;;;28.57;19.51
64064;BME280;50314;50.618;10.642;2022-08-04T11:09:17;96571.19;;;28.60;19.58
64064;BME280;50314;50.618;10.642;2022-08-04T11:11:53;96570.59;;;28.58;19.52
64064;BME280;50314;50.618;10.642;2022-08-04T11:14:28;96572.00;;;28.61;19.20
64064;BME280;50314;50.618;10.642;2022-08-04T11:21:58;96573.56;;;28.68;19.37
64064;BME280;50314;50.618;10.642;2022-08-04T11:24:35;96569.41;;;28.66;19.12
64064;BME280;50314;50.618;10.642;2022-08-04T11:27:13;96571.91;;;28.67;19.21
64064;BME280;50314;50.618;10.642;2022-08-04T11:35:33;96566.38;;;28.74;19.38
64064;BME280;50314;50.618;10.642;2022-08-04T11:38:14;96563.69;;;28.74;19.31
64064;BME280;50314;50.618;10.642;2022-08-04T11:40:46;96561.69;;;28.81;19.25
64064;BME280;50314;50.618;10.642;2022-08-04T11:46:12;96569.00;;;28.80;19.07
64064;BME280;50314;50.618;10.642;2022-08-04T11:49:04;96554.03;;;28.78;19.01
64064;BME280;50314;50.618;10.642;2022-08-04T11:51:30;96566.63;;;28.84;19.07
64064;BME280;50314;50.618;10.642;2022-08-04T11:53:58;96571.81;;;28.86;19.25
64064;BME280;50314;50.618;10.642;2022-08-04T11:56:25;96565.94;;;28.89;19.08
64064;BME280;50314;50.618;10.642;2022-08-04T11:58:51;96561.16;;;28.91;19.01
64064;BME280;50314;50.618;10.642;2022-08-04T12:09:55;96548.50;;;28.96;18.92
64064;BME280;50314;50.618;10.642;2022-08-04T12:12:37;96549.13;;;28.98;19.27
64064;BME280;50314;50.618;10.642;2022-08-04T12:15:26;96557.47;;;28.97;19.00
64064;BME280;50314;50.618;10.642;2022-08-04T12:17:58;96550.66;;;29.06;19.11
64064;BME280;50314;50.618;10.642;2022-08-04T12:20:28;96551.00;;;29.10;19.01
64064;BME280;50314;50.618;10.642;2022-08-04T12:22:56;96545.81;;;29.08;18.96
64064;BME280;50314;50.618;10.642;2022-08-04T12:25:33;96532.75;;;29.05;18.88
64064;BME280;50314;50.618;10.642;2022-08-04T12:28:15;96543.69;;;29.10;18.77
64064;BME280;50314;50.618;10.642;2022-08-04T12:30:46;96547.25;;;29.11;18.67
64064;BME280;50314;50.618;10.642;2022-08-04T12:33:23;96546.75;;;29.14;18.77
64064;BME280;50314;50.618;10.642;2022-08-04T12:35:57;96537.69;;;29.20;18.79
64064;BME280;50314;50.618;10.642;2022-08-04T12:38:26;96534.13;;;29.19;18.60
64064;BME280;50314;50.618;10.642;2022-08-04T12:40:57;96533.56;;;29.17;18.65
64064;BME280;50314;50.618;10.642;2022-08-04T12:43:29;96532.72;;;29.17;18.79
64064;BME280;50314;50.618;10.642;2022-08-04T12:46:04;96528.97;;;29.18;18.78
64064;BME280;50314;50.618;10.642;2022-08-04T12:48:32;96528.97;;;29.18;18.73
64064;BME280;50314;50.618;10.642;2022-08-04T12:50:59;96520.00;;;29.17;18.82
64064;BME280;50314;50.618;10.642;2022-08-04T12:53:28;96536.50;;;29.16;18.62
64064;BME280;50314;50.618;10.642;2022-08-04T12:55:56;96523.53;;;29.18;18.87
64064;BME280;50314;50.618;10.642;2022-08-04T12:58:24;96520.84;;;29.18;18.96
64064;BME280;50314;50.618;10.642;2022-08-04T13:00:59;96526.25;;;29.18;18.91
64064;BME280;50314;50.618;10.642;2022-08-04T13:03:28;96522.72;;;29.17;18.87
64064;BME280;50314;50.618;10.642;2022-08-04T13:05:55;96514.94;;;29.21;19.01
64064;BME280;50314;50.618;10.642;2022-08-04T13:08:21;96511.16;;;29.22;18.88
64064;BME280;50314;50.618;10.642;2022-08-04T13:10:51;96510.34;;;29.21;18.75
64064;BME280;50314;50.618;10.642;2022-08-04T13:13:19;96516.09;;;29.25;18.92
64064;BME280;50314;50.618;10.642;2022-08-04T13:16:00;96511.63;;;29.19;19.01
64064;BME280;50314;50.618;10.642;2022-08-04T13:18:28;96514.44;;;29.24;18.99
64064;BME280;50314;50.618;10.642;2022-08-04T13:20:54;96514.44;;;29.24;19.04
64064;BME280;50314;50.618;10.642;2022-08-04T13:23:21;96507.38;;;29.23;18.96
64064;BME280;50314;50.618;10.642;2022-08-04T13:25:50;96497.00;;;29.20;18.74
64064;BME280;50314;50.618;10.642;2022-08-04T13:28:25;96504.22;;;29.14;18.96
64064;BME280;50314;50.618;10.642;2022-08-04T13:30:58;96498.66;;;29.21;18.84
64064;BME280;50314;50.618;10.642;2022-08-04T13:33:38;96500.19;;;29.17;18.88
64064;BME280;50314;50.618;10.642;2022-08-04T13:36:05;96499.50;;;29.21;18.72
64064;BME280;50314;50.618;10.642;2022-08-04T13:38:31;96501.13;;;29.22;18.99
64064;BME280;50314;50.618;10.642;2022-08-04T13:41:01;96499.16;;;29.18;18.54
64064;BME280;50314;50.618;10.642;2022-08-04T13:43:40;96502.78;;;29.12;18.80
64064;BME280;50314;50.618;10.642;2022-08-04T13:46:06;96497.47;;;29.17;18.89
64064;BME280;50314;50.618;10.642;2022-08-04T13:48:35;96496.09;;;29.14;18.74
64064;BME280;50314;50.618;10.642;2022-08-04T13:51:04;96490.41;;;29.16;18.54
64064;BME280;50314;50.618;10.642;2022-08-04T13:53:34;96495.00;;;29.15;18.68
64064;BME280;50314;50.618;10.642;2022-08-04T13:56:03;96487.94;;;29.14;18.70
64064;BME280;50314;50.618;10.642;2022-08-04T13:58:31;96477.94;;;29.15;18.78
64064;BME280;50314;50.618;10.642;2022-08-04T14:06:15;96479.56;;;29.16;18.58
64064;BME280;50314;50.618;10.642;2022-08-04T14:09:13;96475.78;;;29.17;18.52
64064;BME280;50314;50.618;10.642;2022-08-04T14:11:40;96471.06;;;29.24;18.58
64064;BME280;50314;50.618;10.642;2022-08-04T14:14:21;96469.88;;;29.20;18.51
64064;BME280;50314;50.618;10.642;2022-08-04T14:17:06;96462.00;;;29.18;18.42
64064;BME280;50314;50.618;10.642;2022-08-04T14:19:55;96466.13;;;29.21;18.47
64064;BME280;50314;50.618;10.642;2022-08-04T14:25:04;96461.88;;;29.25;18.58
64064;BME280;50314;50.618;10.642;2022-08-04T14:27:42;96454.78;;;29.24;18.28
64064;BME280;50314;50.618;10.642;2022-08-04T14:30:32;96453.13;;;29.23;18.45
64064;BME280;50314;50.618;10.642;2022-08-04T14:33:10;96460.19;;;29.24;18.44
64064;BME280;50314;50.618;10.642;2022-08-04T14:35:37;96445.69;;;29.30;18.22
64064;BME280;50314;50.618;10.642;2022-08-04T14:38:05;96449.22;;;29.31;18.40
64064;BME280;50314;50.618;10.642;2022-08-04T14:40:34;96450.56;;;29.28;18.13
64064;BME280;50314;50.618;10.642;2022-08-04T14:43:00;96454.31;;;29.27;18.24
64064;BME280;50314;50.618;10.642;2022-08-04T14:47:53;96455.38;;;29.26;18.07
64064;BME280;50314;50.618;10.642;2022-08-04T14:50:20;96446.75;;;29.29;18.16
64064;BME280;50314;50.618;10.642;2022-08-04T14:53:07;96443.47;;;29.27;18.37
64064;BME280;50314;50.618;10.642;2022-08-04T14:55:33;96437.91;;;29.34;18.46
64064;BME280;50314;50.618;10.642;2022-08-04T14:57:59;96437.69;;;29.35;18.55
64064;BME280;50314;50.618;10.642;2022-08-04T15:00:31;96429.53;;;29.35;18.29
64064;BME280;50314;50.618;10.642;2022-08-04T15:03:01;96438.75;;;29.34;18.37
64064;BME280;50314;50.618;10.642;2022-08-04T15:05:29;96431.22;;;29.36;18.36
64064;BME280;50314;50.618;10.642;2022-08-04T15:07:55;96428.50;;;29.36;18.33
64064;BME280;50314;50.618;10.642;2022-08-04T15:10:21;96420.34;;;29.36;18.11
64064;BME280;50314;50.618;10.642;2022-08-04T15:12:46;96428.28;;;29.38;18.21
64064;BME280;50314;50.618;10.642;2022-08-04T15:15:12;96420.97;;;29.38;18.51
64064;BME280;50314;50.618;10.642;2022-08-04T15:17:39;96428.84;;;29.40;18.25
64064;BME280;50314;50.618;10.642;2022-08-04T15:20:05;96414.47;;;29.39;18.28
64064;BME280;50314;50.618;10.642;2022-08-04T15:22:31;96414.47;;;29.39;18.47
64064;BME280;50314;50.618;10.642;2022-08-04T15:24:57;96410.66;;;29.40;18.60
64064;BME280;50314;50.618;10.642;2022-08-04T15:27:24;96409.03;;;29.39;18.34
64064;BME280;50314;50.618;10.642;2022-08-04T15:29:51;96410.66;;;29.40;18.36
64064;BME280;50314;50.618;10.642;2022-08-04T15:32:21;96409.03;;;29.39;18.50
64064;BME280;50314;50.618;10.642;2022-08-04T15:34:49;96417.16;;;29.39;18.55
64064;BME280;50314;50.618;10.642;2022-08-04T15:37:23;96405.72;;;29.37;18.40
64064;BME280;50314;50.618;10.642;2022-08-04T15:40:13;96399.38;;;29.32;18.00
64064;BME280;50314;50.618;10.642;2022-08-04T15:42:47;96407.84;;;29.35;18.34
64064;BME280;50314;50.618;10.642;2022-08-04T15:45:19;96407.84;;;29.35;18.56
64064;BME280;50314;50.618;10.642;2022-08-04T15:50:29;96402.19;;;29.37;18.31
64064;BME280;50314;50.618;10.642;2022-08-04T15:55:31;96393.34;;;29.30;18.35
64064;BME280;50314;50.618;10.642;2022-08-04T16:00:27;96396.88;;;29.30;18.29
64064;BME280;50314;50.618;10.642;2022-08-04T16:02:53;96397.94;;;29.29;18.06
64064;BME280;50314;50.618;10.642;2022-08-04T16:13:12;96395.63;;;29.21;18.22
64064;BME280;50314;50.618;10.642;2022-08-04T16:15:48;96393.47;;;29.23;18.44
64064;BME280;50314;50.618;10.642;2022-08-04T16:18:36;96389.00;;;29.17;18.61
64064;BME280;50314;50.618;10.642;2022-08-04T16:21:05;96388.53;;;29.20;18.55
64064;BME280;50314;50.618;10.642;2022-08-04T16:34:33;96372.19;;;29.15;18.63
64064;BME280;50314;50.618;10.642;2022-08-04T16:37:01;96375.72;;;29.15;18.59
64064;BME280;50314;50.618;10.642;2022-08-04T16:39:27;96367.59;;;29.15;18.73
64064;BME280;50314;50.618;10.642;2022-08-04T16:41:52;96378.16;;;29.17;18.63
64064;BME280;50314;50.618;10.642;2022-08-04T16:44:35;96368.31;;;29.11;18.77
64064;BME280;50314;50.618;10.642;2022-08-04T16:47:04;96371.09;;;29.16;18.66
64064;BME280;50314;50.618;10.642;2022-08-04T16:49:30;96376.53;;;29.16;18.53
64064;BME280;50314;50.618;10.642;2022-08-04T16:52:03;96366.16;;;29.13;18.53
64064;BME280;50314;50.618;10.642;2022-08-04T16:54:32;96362.97;;;29.16;18.60
64064;BME280;50314;50.618;10.642;2022-08-04T16:56:59;96356.75;;;29.15;18.52
64064;BME280;50314;50.618;10.642;2022-08-04T16:59:25;96355.91;;;29.15;18.29
64064;BME280;50314;50.618;10.642;2022-08-04T17:01:53;96358.03;;;29.13;18.41
64064;BME280;50314;50.618;10.642;2022-08-04T17:04:30;96353.56;;;29.07;18.74
64064;BME280;50314;50.618;10.642;2022-08-04T17:07:00;96356.06;;;29.08;18.63
64064;BME280;50314;50.618;10.642;2022-08-04T17:09:27;96357.69;;;29.09;18.70
64064;BME280;50314;50.618;10.642;2022-08-04T17:11:52;96352.41;;;29.02;18.95
64064;BME280;50314;50.618;10.642;2022-08-04T17:14:26;96360.53;;;29.02;18.88
64064;BME280;50314;50.618;10.642;2022-08-04T17:16:54;96355.72;;;29.04;18.86
64064;BME280;50314;50.618;10.642;2022-08-04T17:19:20;96362.19;;;29.03;19.16
64064;BME280;50314;50.618;10.642;2022-08-04T17:21:46;96355.94;;;29.03;18.82
64064;BME280;50314;50.618;10.642;2022-08-04T17:24:13;96352.41;;;29.02;18.71
64064;BME280;50314;50.618;10.642;2022-08-04T17:26:39;96353.47;;;29.01;18.85
64064;BME280;50314;50.618;10.642;2022-08-04T17:29:04;96350.16;;;28.99;18.92
64064;BME280;50314;50.618;10.642;2022-08-04T17:31:32;96346.91;;;28.97;18.85